Latest Weather Observations for Cairns Racecourse

IDQ60801

Issued at 6:35 pm EST Tuesday 29 July 2014 (issued every 30 minutes, with the page automatically refreshed every 10 minutes)

About weather observations | Map of weather stations | Latest weather observations for QLD | Other Formats
Station Details ID: 031222 Name: CAIRNS RACECOURSE Lat: -16.95 Lon: 145.75 Height: 4.1 m
Data from the previous 72 hours. | See also: Recent months for locations in Queensland
Date/Time
EST
Temp
°C
App
Temp
°C
Dew
Point
Rel
Hum
%
Delta-T
°C
Wind Press
QNH
hPa
Press
MSL
hPa
Rain
since 9 am
mm
Dir
 
Spd
km/h
Gust
km/h
Spd
kts
Gust
kts
29/06:30pm 19.9 19.7 14.7 72 3.0 SSW 9 11 5 6 - - 0.0
29/06:00pm 21.0 21.7 14.6 67 3.7 S 4 7 2 4 - - 0.0
29/05:30pm 22.6 22.1 13.9 58 5.1 SSE 9 13 5 7 - - 0.0
29/05:00pm 23.3 22.7 14.6 58 5.1 SSE 11 15 6 8 - - 0.0
29/04:30pm 24.2 22.9 15.7 59 5.1 E 17 26 9 14 - - 0.0
29/04:00pm 24.5 22.6 15.7 58 5.3 ESE 20 30 11 16 - - 0.0
29/03:30pm 24.9 23.0 15.2 54 5.8 ESE 19 28 10 15 - - 0.0
29/03:00pm 25.1 22.9 14.8 52 6.2 E 20 32 11 17 - - 0.0
29/02:30pm 25.6 23.2 14.4 50 6.7 E 20 32 11 17 - - 0.0
29/02:00pm 25.6 23.5 15.3 53 6.2 E 20 30 11 16 - - 0.0
29/01:30pm 25.7 24.2 16.8 58 5.5 ESE 20 33 11 18 - - 0.0
29/01:00pm 24.4 22.9 16.4 61 4.9 ESE 19 26 10 14 - - 0.0
29/12:30pm 25.5 24.3 17.4 61 5.1 ESE 20 30 11 16 - - 0.0
29/12:00pm 25.5 24.6 17.7 62 4.9 ESE 19 28 10 15 - - 0.0
29/11:30am 24.2 23.7 17.0 64 4.4 SE 15 20 8 11 - - 0.0
29/11:00am 24.1 23.5 16.6 63 4.6 SE 15 24 8 13 - - 0.0
29/10:30am 23.7 22.7 16.7 65 4.3 SE 17 22 9 12 - - 0.0
29/10:00am 23.6 22.8 18.0 71 3.5 S 19 28 10 15 - - 0.0
29/09:30am 23.2 22.6 18.5 75 3.0 S 19 26 10 14 - - 0.0
29/09:00am 22.0 21.8 18.6 81 2.1 S 17 22 9 12 - - 0.0
29/08:30am 21.6 22.5 19.3 87 1.5 S 13 20 7 11 - - 0.0
29/08:00am 20.6 21.3 18.9 90 1.1 S 13 20 7 11 - - 0.0
29/07:30am 19.7 20.7 18.7 94 0.6 S 11 17 6 9 - - 0.0
29/07:00am 19.1 20.4 18.4 96 0.4 S 9 13 5 7 - - 0.0
29/06:30am 18.5 19.6 18.0 97 0.3 S 9 13 5 7 - - 0.0
29/06:00am 18.3 19.8 18.0 98 0.2 SE 7 9 4 5 - - 0.0
29/05:30am 17.8 19.1 17.6 99 0.1 SSE 7 11 4 6 - - 0.0
29/05:00am 17.3 18.4 17.1 99 0.1 SSE 7 9 4 5 - - 0.0
29/04:30am 17.2 18.3 17.0 99 0.1 SE 7 9 4 5 - - 0.0
29/04:00am 17.1 19.0 16.8 98 0.2 SE 2 7 1 4 - - 0.0
29/03:30am 17.4 18.5 17.1 98 0.2 SE 7 11 4 6 - - 0.0
29/03:00am 17.2 19.1 16.7 97 0.3 SSW 2 9 1 5 - - 0.0
29/02:30am 17.8 20.0 17.5 98 0.2 S 2 6 1 3 - - 0.0
29/02:00am 18.2 19.7 18.0 99 0.1 SW 7 7 4 4 - - 0.0
29/01:30am 18.1 20.8 17.8 98 0.2 CALM 0 6 0 3 - - 0.0
29/01:00am 17.5 19.5 17.0 97 0.3 SE 2 6 1 3 - - 0.0
29/12:30am 17.5 19.9 16.9 96 0.4 CALM 0 0 0 0 - - 0.0
29/12:00am 18.0 20.2 17.4 96 0.4 SSE 2 6 1 3 - - 0.0
 
Date/Time
EST
Temp
°C
App
Temp
°C
Dew
Point
Rel
Hum
%
Delta-T
°C
Wind Press
QNH
hPa
Press
MSL
hPa
Rain
since 9 am
mm
Dir
 
Spd
km/h
Gust
km/h
Spd
kts
Gust
kts
28/11:30pm 18.6 20.0 17.9 96 0.4 ESE 7 9 4 5 - - 0.0
28/11:00pm 18.9 20.7 18.2 96 0.4 ESE 6 11 3 6 - - 0.0
28/10:30pm 18.7 20.8 18.0 96 0.4 SE 4 9 2 5 - - 0.0
28/10:00pm 19.0 20.2 18.3 96 0.4 SSE 9 11 5 6 - - 0.0
28/09:30pm 19.0 21.1 18.2 95 0.5 SE 4 7 2 4 - - 0.0
28/09:00pm 19.5 21.3 18.7 95 0.5 SSE 7 9 4 5 - - 0.0
28/08:30pm 19.8 21.3 19.0 95 0.5 S 9 13 5 7 - - 0.0
28/08:00pm 20.1 21.7 19.1 94 0.6 SE 9 15 5 8 - - 0.0
28/07:30pm 19.9 21.3 18.7 93 0.7 S 9 13 5 7 - - 0.0
28/07:00pm 20.2 20.2 19.0 93 0.8 S 17 22 9 12 - - 0.0
28/06:30pm 20.5 21.2 18.8 90 1.1 S 13 17 7 9 - - 0.0
28/06:00pm 20.7 21.6 19.2 91 0.9 S 13 19 7 10 - - 0.0
28/05:30pm 21.0 22.8 19.5 91 1.0 S 9 15 5 8 - - 0.0
28/05:00pm 20.9 22.2 19.2 90 1.1 SE 11 15 6 8 - - 0.0
28/04:30pm 21.5 25.2 20.0 91 1.0 CALM 0 0 0 0 - - 0.0
28/04:00pm 21.3 23.4 19.4 89 1.2 S 7 13 4 7 - - 0.0
28/03:30pm 22.2 23.7 19.7 86 1.6 S 11 17 6 9 - - 0.0
28/03:00pm 21.8 22.1 19.5 87 1.5 S 17 22 9 12 - - 0.0
28/02:30pm 22.6 24.2 19.9 85 1.7 S 11 17 6 9 - - 0.0
28/02:00pm 22.0 22.8 19.9 88 1.3 SE 15 24 8 13 - - 0.0
28/01:30pm 22.7 23.9 20.0 85 1.7 SSE 13 19 7 10 - - 0.0
28/01:00pm 22.5 23.4 19.3 82 2.0 ESE 13 24 7 13 - - 0.0
28/12:30pm 22.1 24.1 20.0 88 1.3 SE 9 13 5 7 - - 0.0
28/12:00pm 22.8 24.2 21.1 90 1.1 S 15 20 8 11 - - 0.0
28/11:30am 21.4 22.6 20.6 95 0.5 S 15 20 8 11 - - 0.0
28/11:00am 21.8 22.8 19.5 87 1.5 SE 13 20 7 11 - - 0.0
28/10:30am 20.9 20.6 19.2 90 1.1 SSE 19 35 10 19 - - 0.0
28/10:00am 22.7 23.6 19.3 81 2.2 SSE 13 20 7 11 - - 0.0
28/09:30am 21.6 23.5 19.7 89 1.2 SE 9 11 5 6 - - 0.0
28/09:00am 21.9 22.7 19.1 84 1.8 SSE 13 22 7 12 - - 0.0
28/08:30am 21.6 22.4 19.0 85 1.6 SSE 13 20 7 11 - - 0.0
28/08:00am 21.5 22.0 19.2 87 1.5 S 15 20 8 11 - - 0.0
28/07:30am 20.2 20.8 18.5 90 1.1 S 13 19 7 10 - - 0.0
28/07:00am 20.1 21.2 18.8 92 0.8 S 11 17 6 9 - - 0.0
28/06:30am 19.8 20.8 18.6 93 0.7 S 11 17 6 9 - - 0.0
28/06:00am 19.8 21.2 18.6 93 0.7 S 9 17 5 9 - - 0.0
28/05:30am 19.8 20.8 18.6 93 0.7 S 11 15 6 8 - - 0.0
28/05:00am 20.0 21.0 18.7 92 0.8 SSE 11 17 6 9 - - 0.0
28/04:30am 19.9 20.9 18.6 92 0.8 S 11 17 6 9 - - 0.0
28/04:00am 19.9 20.5 18.6 92 0.8 S 13 17 7 9 - - 0.0
28/03:30am 19.9 20.5 18.7 93 0.7 S 13 19 7 10 - - 0.0
28/03:00am 19.9 21.0 18.9 94 0.6 S 11 15 6 8 - - 0.0
28/02:30am 20.0 22.0 19.2 95 0.5 S 7 13 4 7 - - 0.0
28/02:00am 20.0 20.8 19.0 94 0.6 S 13 19 7 10 - - 0.0
28/01:30am 20.1 21.7 19.1 94 0.6 S 9 13 5 7 - - 0.0
28/01:00am 19.8 22.0 19.1 96 0.4 SSE 6 11 3 6 - - 0.0
28/12:30am 19.8 22.0 19.1 96 0.4 ESE 6 7 3 4 - - 0.0
28/12:00am 19.6 22.4 18.8 95 0.5 SSE 2 7 1 4 - - 0.0
 
Date/Time
EST
Temp
°C
App
Temp
°C
Dew
Point
Rel
Hum
%
Delta-T
°C
Wind Press
QNH
hPa
Press
MSL
hPa
Rain
since 9 am
mm
Dir
 
Spd
km/h
Gust
km/h
Spd
kts
Gust
kts
27/11:30pm 19.8 21.9 19.0 95 0.5 S 6 11 3 6 - - 0.0
27/11:00pm 19.7 22.9 18.9 95 0.5 CALM 0 0 0 0 - - 0.0
27/10:30pm 20.0 23.3 19.2 95 0.5 CALM 0 0 0 0 - - 0.0
27/10:00pm 20.3 23.4 19.5 95 0.5 SW 2 7 1 4 - - 0.0
27/09:30pm 20.2 21.8 19.2 94 0.6 SSE 9 17 5 9 - - 0.0
27/09:00pm 20.3 22.0 19.3 94 0.6 SSE 9 13 5 7 - - 0.0
27/08:30pm 20.3 21.4 19.6 96 0.4 S 13 26 7 14 - - 0.0
27/08:00pm 20.3 21.4 19.6 96 0.4 S 13 19 7 10 - - 0.0
27/07:30pm 20.3 21.8 19.8 97 0.3 S 11 17 6 9 - - 0.0
27/07:00pm 20.5 22.0 19.8 96 0.4 S 11 15 6 8 - - 0.0
27/06:30pm 20.4 21.5 19.6 95 0.5 S 13 20 7 11 - - 0.0
27/06:00pm 21.0 22.3 19.3 90 1.1 SSE 11 20 6 11 - - 0.0
27/05:30pm 22.0 23.0 18.6 81 2.1 S 11 19 6 10 - - 0.0
27/05:00pm 21.9 22.3 18.9 83 1.9 SSW 15 24 8 13 - - 0.0
27/04:30pm 23.3 22.7 18.8 76 2.8 SSE 20 28 11 15 - - 0.0
27/04:00pm 24.2 24.2 18.2 69 3.8 ESE 15 26 8 14 - - 0.0
27/03:30pm 24.3 24.0 18.2 68 3.8 ESE 17 26 9 14 - - 0.0
27/03:00pm 24.7 24.4 19.1 71 3.6 ESE 19 26 10 14 - - 0.0
27/02:30pm 24.7 23.7 18.9 70 3.7 SE 22 32 12 17 - - 0.0
27/02:00pm 24.4 23.9 19.2 73 3.3 ESE 20 37 11 20 - - 0.0
27/01:30pm 24.2 23.6 18.8 72 3.4 SE 20 33 11 18 - - 0.0
27/01:00pm 23.3 23.6 20.4 84 1.9 S 19 28 10 15 - - 0.0
27/12:30pm 22.6 24.0 21.1 91 1.0 S 15 22 8 12 - - 0.0
27/12:00pm 21.5 21.6 20.3 93 0.8 S 20 33 11 18 - - 0.0
27/11:30am 22.3 22.8 20.9 92 0.9 SSE 19 28 10 15 - - 0.0
27/11:00am 22.4 24.0 20.7 90 1.1 S 13 19 7 10 - - 0.0
27/10:30am 22.8 25.3 21.8 94 0.7 S 11 15 6 8 - - 0.0
27/10:00am 21.6 23.4 20.4 93 0.8 SSE 11 17 6 9 - - 0.0
27/09:30am 22.0 23.7 21.0 94 0.7 SSE 13 19 7 10 - - 0.0
27/09:00am 21.4 22.6 20.7 96 0.5 S 15 20 8 11 - - 0.2
27/08:30am 20.7 22.0 20.2 97 0.3 SSE 13 20 7 11 - - 0.2
27/08:00am 20.5 22.4 19.8 96 0.4 S 9 17 5 9 - - 0.2
27/07:30am 20.3 21.5 19.8 97 0.3 S 13 19 7 10 - - 0.2
27/07:00am 20.2 22.0 19.5 96 0.4 S 9 13 5 7 - - 0.2
27/06:30am 20.2 21.2 19.4 95 0.5 S 13 19 7 10 - - 0.2
27/06:00am 20.4 21.6 19.1 92 0.8 SSE 11 15 6 8 - - 0.2
27/05:30am 20.6 21.5 18.5 88 1.3 SSE 11 19 6 10 - - 0.2
27/05:00am 20.3 21.5 18.2 88 1.3 S 9 13 5 7 - - 0.2
27/04:30am 20.8 21.7 18.4 86 1.5 SSE 11 17 6 9 - - 0.2
27/04:00am 20.3 21.0 17.9 86 1.5 S 11 15 6 8 - - 0.0
27/03:30am 20.5 21.5 18.6 89 1.2 S 11 20 6 11 - - 0.0
27/03:00am 19.4 20.8 17.7 90 1.0 S 7 9 4 5 - - 0.0
27/02:30am 19.4 20.9 17.5 89 1.2 SSE 6 9 3 5 - - 0.0
27/02:00am 19.3 20.5 17.3 88 1.2 S 7 11 4 6 - - 0.0
27/01:30am 19.9 21.0 17.9 88 1.2 S 9 15 5 8 - - 0.0
27/01:00am 20.2 21.3 18.0 87 1.4 SSE 9 13 5 7 - - 0.0
27/12:30am 20.1 21.2 17.9 87 1.4 S 9 13 5 7 - - 0.0
27/12:00am 20.6 21.0 18.2 86 1.5 S 13 19 7 10 - - 0.0
 
Date/Time
EST
Temp
°C
App
Temp
°C
Dew
Point
Rel
Hum
%
Delta-T
°C
Wind Press
QNH
hPa
Press
MSL
hPa
Rain
since 9 am
mm
Dir
 
Spd
km/h
Gust
km/h
Spd
kts
Gust
kts
26/11:30pm 20.8 21.4 18.6 87 1.4 S 13 17 7 9 - - 0.0
26/11:00pm 20.3 21.3 18.6 90 1.1 S 11 17 6 9 - - 0.0
26/10:30pm 20.6 21.6 18.7 89 1.2 S 11 17 6 9 - - 0.0
26/10:00pm 20.5 21.2 18.8 90 1.1 S 13 17 7 9 - - 0.0
26/09:30pm 20.7 21.3 18.6 88 1.3 S 13 15 7 8 - - 0.0
26/09:00pm 21.1 21.7 18.7 86 1.5 S 13 20 7 11 - - 0.0
26/08:30pm 21.4 22.1 18.8 85 1.6 S 13 19 7 10 - - 0.0
26/08:00pm 21.2 21.9 18.8 86 1.5 S 13 20 7 11 - - 0.0
26/07:30pm 20.8 21.7 18.4 86 1.5 S 11 19 6 10 - - 0.0
26/07:00pm 20.7 22.1 17.7 83 1.8 S 7 11 4 6 - - 0.0

Other Formats:

Comma delimited format used in spreadsheet applications
http://www.bom.gov.au/fwo/IDQ60801/IDQ60801.94288.axf

JavaScript Object Notation format (JSON) in row-major order
http://www.bom.gov.au/fwo/IDQ60801/IDQ60801.94288.json